• Join FlightAware (Why Join?)
  • Login
  • US Flag 
11:26PM EST


 

Airport Tracker/Info


-or-


 

Live Flight TrackerFlight Track Log ✈ FLG3432 ✈ 15-May-2013 ✈ KALB - KMSP

Flight Track Log - Related Links

Times and Time Zones

All times are in EDT time to prevent confusion due to time zone crossing. See the FLG3432 flight status page for this flight to view local times or setup timezone preferences in your user account.

Time Position Orientation Groundspeed Altitude Reporting Facility
EDT Latitude Longitude Course Direction KTS MPH feet Rate Location/Type
06:25AM 42.7714 -73.8092 304° West 181 208 1,100  Level Boston Center
06:26AM 42.8336 -73.8303 346° North 217 250 3,700 2,280 Climbing Boston Center
06:27AM 42.8953 -73.8997 320° Northwest 260 299 6,400 2,580 Climbing Boston Center
06:28AM 42.8261 -74.2861 282° West  Level FlightAware Approximate
06:28AM 42.9508 -73.9606 321° Northwest 260 299 9,500  Level Boston Center
06:29AM 42.8462 -74.4103 283° West  Level FlightAware Approximate
06:29AM 43.0061 -74.0300 317° Northwest 255 293 11,300  Level Boston Center
06:30AM 42.8671 -74.5342 304° West  Level FlightAware Approximate
06:30AM 43.0508 -74.1250 303° West 287 330 13,500  Level Boston Center
06:31AM 43.0589 -74.2758 274° West 320 368 16,300 2,160 Climbing Boston Center
06:32AM 43.0653 -74.3869 275° West 336 387 17,900 1,860 Climbing Boston Center
06:33AM 43.0733 -74.5178 275° West 342 394 20,100 1,920 Climbing Boston Center
06:34AM 43.0814 -74.6489 275° West 342 394 21,800 1,620 Climbing Boston Center
06:35AM 43.0914 -74.7772 276° West 348 400 23,400 1,560 Climbing Boston Center
06:36AM 43.1050 -74.9114 278° West 353 406 25,000 1,560 Climbing Boston Center
06:37AM 43.1167 -75.0456 277° West 353 406 26,600 1,320 Climbing Boston Center
06:38AM 43.1281 -75.1828 277° West 353 406 27,700 1,380 Climbing Boston Center
06:39AM 43.1394 -75.3197 277° West 358 412 29,400 1,500 Climbing Boston Center
06:40AM 43.1525 -75.4542 278° West 363 418 30,800 1,200 Climbing Boston Center
06:41AM 43.1622 -75.5628 277° West 363 418 31,800 1,200 Climbing Boston Center
06:43AM 43.1667 -75.8000 272° West 340 391 34,000 780 Climbing Toronto Center
06:44AM 43.1833 -75.9333 280° West 360 414 34,000  Level Toronto Center
06:45AM 43.1833 -76.0500 270° West 350 403 34,000  Level Toronto Center
06:46AM 43.2000 -76.2000 279° West 360 414 34,000  Level Toronto Center
06:47AM 43.2167 -76.3167 281° West 350 403 34,000  Level Toronto Center
06:48AM 43.2167 -76.4500 270° West 340 391 34,000  Level Toronto Center
06:49AM 43.2333 -76.5833 280° West 350 403 34,000  Level Toronto Center
06:50AM 43.2533 -76.7492 279° West 350 403 34,000  Level Cleveland Center
06:51AM 43.2639 -76.8853 276° West 350 403 34,000  Level Cleveland Center
06:52AM 43.2722 -77.0133 275° West 350 403 34,000  Level Cleveland Center
06:53AM 43.2803 -77.1439 275° West 344 396 34,000  Level Cleveland Center
06:54AM 43.2903 -77.2717 276° West 344 396 34,000  Level Cleveland Center
06:55AM 43.3003 -77.4025 276° West 349 402 34,000  Level Cleveland Center
06:56AM 43.3078 -77.5333 275° West 349 402 34,000  Level Cleveland Center
06:57AM 43.3175 -77.6642 276° West 349 402 34,000  Level Cleveland Center
06:58AM 43.3228 -77.7953 273° West 349 402 34,000  Level Cleveland Center
06:59AM 43.3322 -77.9317 275° West 349 402 34,000 300 Level Cleveland Center
07:00AM 43.3414 -78.0656 275° West 354 407 34,700 780 Climbing Cleveland Center
07:01AM 43.3506 -78.2022 275° West 354 407 35,600 600 Climbing Cleveland Center
07:02AM 43.3575 -78.3361 274° West 359 413 36,000 180 Climbing Cleveland Center
07:03AM 43.3767 -78.4669 281° West 359 413 36,000  Level Cleveland Center
07:04AM 43.4019 -78.6003 285° West 359 413 36,000  Level Cleveland Center
07:05AM 43.4208 -78.7311 281° West 359 413 36,000  Level Cleveland Center
07:06AM 43.4458 -78.8678 284° West 359 413 36,000  Level Cleveland Center
07:07AM 43.4500 -78.9667 273° West 360 414 36,000  Level Toronto Center
07:08AM 43.4833 -79.1000 289° West 360 414 36,000  Level Toronto Center
07:09AM 43.5000 -79.2500 279° West 360 414 36,000  Level Toronto Center
07:10AM 43.5333 -79.3833 289° West 360 414 36,000  Level Toronto Center
07:11AM 43.5667 -79.5000 292° West 360 414 36,000  Level Toronto Center
07:12AM 43.5833 -79.6333 280° West 370 426 36,000  Level Toronto Center
07:13AM 43.6167 -79.7667 289° West 370 426 36,000  Level Toronto Center
07:14AM 43.6333 -79.9167 279° West 370 426 36,000  Level Toronto Center
07:15AM 43.6500 -80.0500 280° West 370 426 36,000  Level Toronto Center
07:16AM 43.6667 -80.1833 280° West 370 426 36,000  Level Toronto Center
07:17AM 43.7000 -80.3167 289° West 370 426 36,000  Level Toronto Center
07:18AM 43.7167 -80.4667 279° West 370 426 36,000  Level Toronto Center
07:19AM 43.7333 -80.6000 280° West 360 414 36,000  Level Toronto Center
07:20AM 43.7500 -80.7333 280° West 360 414 36,000  Level Toronto Center
07:21AM 43.7667 -80.8833 279° West 360 414 36,000  Level Toronto Center
07:22AM 43.7833 -81.0167 280° West 360 414 36,000  Level Toronto Center
07:23AM 43.8000 -81.1500 280° West 360 414 36,000  Level Toronto Center
07:24AM 43.8167 -81.3000 279° West 360 414 36,000  Level Toronto Center
07:25AM 43.8500 -81.4167 292° West 360 414 36,000  Level Toronto Center
07:26AM 43.8667 -81.5833 278° West 370 426 36,000  Level Toronto Center
07:27AM 43.8833 -81.7167 280° West 370 426 36,000  Level Toronto Center
07:28AM 43.9000 -81.8500 280° West 370 426 36,000  Level Toronto Center
07:29AM 43.9167 -82.0000 279° West 370 426 36,000  Level Toronto Center
07:30AM 43.9333 -82.1333 280° West 370 426 36,000  Level Toronto Center
07:31AM 43.9500 -82.2667 280° West 370 426 36,000  Level Toronto Center
07:32AM 43.9789 -82.3942 288° West 371 427 36,000  Level Minneapolis Center
07:33AM 43.9969 -82.5350 280° West 371 427 36,000  Level Minneapolis Center
07:34AM 44.0147 -82.6778 280° West 375 432 36,000  Level Minneapolis Center
07:35AM 44.0319 -82.8206 280° West 375 432 36,000  Level Minneapolis Center
07:36AM 44.0497 -82.9622 280° West 374 430 36,000  Level Minneapolis Center
07:37AM 44.0672 -83.1042 280° West 374 430 36,000  Level Minneapolis Center
07:38AM 44.0828 -83.2456 279° West 373 429 36,000  Level Minneapolis Center
07:39AM 44.1031 -83.4161 279° West 373 429 36,000  Level Minneapolis Center
07:40AM 44.1208 -83.5569 280° West 372 428 36,000  Level Minneapolis Center
07:41AM 44.1358 -83.6969 279° West 368 423 36,000  Level Minneapolis Center
07:42AM 44.1519 -83.8331 279° West 361 415 36,000  Level Minneapolis Center
07:43AM 44.1664 -83.9711 278° West 360 414 36,000  Level Minneapolis Center
07:44AM 44.1833 -84.1061 280° West 356 410 36,000  Level Minneapolis Center
07:45AM 44.1975 -84.2444 278° West 360 414 36,000  Level Minneapolis Center
07:46AM 44.2122 -84.3817 279° West 360 414 36,000  Level Minneapolis Center
07:47AM 44.2267 -84.5214 278° West 363 418 36,000  Level Minneapolis Center
07:48AM 44.2456 -84.6897 279° West 367 422 36,000  Level Minneapolis Center
07:49AM 44.2603 -84.8303 278° West 367 422 36,000  Level Minneapolis Center
07:50AM 44.2747 -84.9717 278° West 368 423 36,000  Level Minneapolis Center
07:51AM 44.2917 -85.1419 278° West 369 425 36,000  Level Minneapolis Center
07:53AM 44.3067 -85.2842 278° West 370 426 36,000  Level Minneapolis Center
07:54AM 44.3194 -85.4272 277° West 371 427 36,000  Level Minneapolis Center
07:55AM 44.3339 -85.5694 278° West 370 426 36,000  Level Minneapolis Center
07:56AM 44.3475 -85.7133 278° West 372 428 36,000  Level Minneapolis Center
07:57AM 44.3606 -85.8569 277° West 372 428 36,000  Level Minneapolis Center
07:58AM 44.3742 -85.9997 278° West 370 426 36,000  Level Minneapolis Center
07:59AM 44.3869 -86.1433 277° West 370 426 36,000  Level Minneapolis Center
08:00AM 44.4008 -86.2875 278° West 372 428 36,000  Level Minneapolis Center
08:01AM 44.4133 -86.4308 277° West 370 426 36,000  Level Minneapolis Center
08:02AM 44.4261 -86.5739 277° West 370 426 36,000  Level Minneapolis Center
08:03AM 44.4364 -86.6894 277° West 372 428 36,000  Level Minneapolis Center
08:04AM 44.4514 -86.8606 277° West 370 426 36,000  Level Minneapolis Center
08:05AM 44.4631 -87.0036 277° West 370 426 36,000  Level Minneapolis Center
08:06AM 44.4772 -87.1739 277° West 369 425 36,000  Level Minneapolis Center
08:07AM 44.4886 -87.3178 276° West 371 427 36,000  Level Minneapolis Center
08:08AM 44.5025 -87.4911 276° West 372 428 36,000  Level Minneapolis Center
08:09AM 44.5136 -87.6333 276° West 367 422 36,000  Level Minneapolis Center
08:10AM 44.5244 -87.7769 276° West 372 428 36,000  Level Minneapolis Center
08:11AM 44.5364 -87.9314 276° West 369 425 36,000  Level Minneapolis Center
08:12AM 44.5467 -88.0728 276° West 367 422 36,000  Level Minneapolis Center
08:13AM 44.5575 -88.2169 276° West 372 428 36,000  Level Minneapolis Center
08:14AM 44.5756 -88.3589 280° West 370 426 36,000  Level Minneapolis Center
08:15AM 44.5925 -88.5019 279° West 372 428 36,000  Level Minneapolis Center
08:16AM 44.6086 -88.6450 279° West 372 428 36,000  Level Minneapolis Center
08:17AM 44.6283 -88.8119 279° West 374 430 36,000  Level Minneapolis Center
08:18AM 44.6436 -88.9556 279° West 373 429 36,000  Level Minneapolis Center
08:19AM 44.6597 -89.1003 279° West 375 432 36,000 -300 Level Minneapolis Center
08:20AM 44.6747 -89.2211 280° West 376 433 35,400 -900 Descending Minneapolis Center
08:21AM 44.6922 -89.3931 278° West 380 437 34,200 -1,200 Descending Minneapolis Center
08:22AM 44.7103 -89.5658 278° West 384 442 33,000 -1,080 Descending Minneapolis Center
08:23AM 44.7267 -89.7136 279° West 383 441 32,100 -540 Descending Minneapolis Center
08:24AM 44.7422 -89.8619 278° West 383 441 32,000 -60 Descending Minneapolis Center
08:25AM 44.7575 -90.0078 278° West 379 436 32,000  Level Minneapolis Center
08:27AM 44.7722 -90.1558 278° West 381 438 32,000  Level Minneapolis Center
08:28AM 44.7911 -90.3022 280° West 381 438 32,000  Level Minneapolis Center
08:29AM 44.8106 -90.4486 281° West 380 437 32,000 -300 Level Minneapolis Center
08:30AM 44.8322 -90.6022 281° West 382 440 31,500 -1,140 Descending Minneapolis Center
08:31AM 44.8531 -90.7631 280° West 387 445 29,500 -1,980 Descending Minneapolis Center
08:32AM 44.8800 -90.9592 281° West 389 448 27,100 -2,100 Descending Minneapolis Center
08:33AM 44.8989 -91.1061 280° West 385 443 25,200 -1,800 Descending Minneapolis Center
08:34AM 44.9167 -91.2472 280° West 375 432 23,400 -1,800 Descending Minneapolis Center
08:35AM 44.9350 -91.3842 281° West 363 418 21,600 -1,800 Descending Minneapolis Center
08:36AM 44.9522 -91.5203 280° West 357 411 19,800 -1,620 Descending Minneapolis Center
08:37AM 44.9708 -91.6544 281° West 352 405 18,000 -1,680 Descending Minneapolis Center
08:38AM 44.9900 -91.8078 280° West 342 394 16,100 -1,860 Descending Minneapolis Center
08:39AM 45.0092 -91.9533 281° West 315 362 14,200 -1,620 Descending Minneapolis Center
08:40AM 45.0214 -92.0506 280° West 315 362 12,900 -1,620 Descending Minneapolis Center
08:41AM 45.0386 -92.1964 280° West 314 361 11,000 -1,020 Descending Minneapolis Center
08:42AM 45.0444 -92.3261 274° West 333 383 10,900  Descending Minneapolis Center
08:44AM 45.0228 -92.4556 257° West 341 392 11,000 -420 Climbing Minneapolis Center
08:45AM 44.9847 -92.5833 247° West 296 341 10,000 -1,500 Descending Minneapolis Center
08:46AM 44.9258 -92.6808 230° Southwest 272 313 7,900 -1,500 Descending Minneapolis Center
08:47AM 44.8750 -92.7631 229° Southwest 276 318 7,000 -840 Descending Minneapolis Center
08:48AM 44.8325 -92.8308 229° Southwest 232 267 6,100 -1,320 Descending Minneapolis Center
08:49AM 44.8125 -92.9181 252° West 196 226 4,100 -1,020 Descending Minneapolis Center
08:50AM 44.8072 -92.9928 264° West 193 222 4,000 -120 Descending Minneapolis Center